createdAt,value
2019-04-11T00:01:33.883Z,8.75
2019-04-11T00:03:58.248Z,8.36
2019-04-11T00:06:31.948Z,8.48
2019-04-11T00:09:08.101Z,8.06
2019-04-11T00:11:41.990Z,8.06
2019-04-11T00:14:15.959Z,7.80
2019-04-11T00:16:49.892Z,7.80
2019-04-11T00:19:23.729Z,8.43
2019-04-11T00:21:57.438Z,8.10
2019-04-11T00:24:31.381Z,8.14
2019-04-11T00:27:05.223Z,8.14
2019-04-11T00:29:38.915Z,7.71
2019-04-11T00:32:13.608Z,7.82
2019-04-11T00:34:47.506Z,7.82
2019-04-11T00:37:21.176Z,7.94
2019-04-11T00:39:54.918Z,7.94
2019-04-11T00:42:28.979Z,7.83
2019-04-11T00:45:03.330Z,7.83
2019-04-11T00:47:38.377Z,7.73
2019-04-11T00:50:12.794Z,7.33
2019-04-11T00:52:47.561Z,7.50
2019-04-11T00:55:21.742Z,7.59
2019-04-11T00:57:57.011Z,7.63
2019-04-11T01:00:31.263Z,7.63
2019-04-11T01:03:06.393Z,7.51
2019-04-11T01:05:41.440Z,7.64
2019-04-11T01:08:15.686Z,7.63
2019-04-11T01:10:49.816Z,7.63
2019-04-11T01:13:23.842Z,7.59
2019-04-11T01:15:57.659Z,7.69
2019-04-11T01:18:31.354Z,7.62
2019-04-11T01:21:06.143Z,7.63
2019-04-11T01:23:40.059Z,7.72
2019-04-11T01:26:13.908Z,7.42
2019-04-11T01:28:47.595Z,7.42
2019-04-11T01:31:21.819Z,7.36
2019-04-11T01:33:56.039Z,7.36
2019-04-11T01:36:29.760Z,6.99
2019-04-11T01:39:05.915Z,7.36
2019-04-11T01:41:39.625Z,7.04
2019-04-11T01:44:14.312Z,7.35
2019-04-11T01:46:48.602Z,7.59
2019-04-11T01:49:22.315Z,7.59
2019-04-11T01:51:56.098Z,7.33
2019-04-11T01:54:30.015Z,7.33
2019-04-11T01:57:03.790Z,7.37
2019-04-11T01:59:37.558Z,7.37
2019-04-11T02:02:11.864Z,7.50
2019-04-11T02:04:46.057Z,7.42
2019-04-11T02:07:20.591Z,7.30
2019-04-11T02:09:54.768Z,7.60
2019-04-11T02:12:29.036Z,7.60
2019-04-11T02:15:04.468Z,7.82
2019-04-11T02:17:39.116Z,7.82
2019-04-11T02:20:12.846Z,7.77
2019-04-11T02:22:47.136Z,7.35
2019-04-11T02:25:26.438Z,7.35
2019-04-11T02:28:00.177Z,7.39
2019-04-11T02:30:34.706Z,7.63
2019-04-11T02:33:10.115Z,7.58
2019-04-11T02:35:46.508Z,7.58
2019-04-11T02:38:21.407Z,7.67
2019-04-11T02:40:57.367Z,7.75
2019-04-11T02:43:32.017Z,7.75
2019-04-11T02:46:17.239Z,7.70
2019-04-11T02:48:42.507Z,7.16
2019-04-11T02:51:16.491Z,7.25
2019-04-11T02:53:51.827Z,7.61
2019-04-11T02:56:25.820Z,7.61
2019-04-11T02:59:02.280Z,7.06
2019-04-11T03:01:37.043Z,7.68
2019-04-11T03:04:10.915Z,7.39
2019-04-11T03:06:45.760Z,7.35
2019-04-11T03:09:21.853Z,7.46
2019-04-11T03:11:56.660Z,7.39
2019-04-11T03:14:46.502Z,7.39
2019-04-11T03:17:14.696Z,7.26
2019-04-11T03:19:53.698Z,7.26
2019-04-11T03:22:18.188Z,7.40
2019-04-11T03:24:53.490Z,7.40
2019-04-11T03:27:30.274Z,7.38
2019-04-11T03:30:09.785Z,7.24
2019-04-11T03:38:13.886Z,7.59
2019-04-11T03:40:48.038Z,7.66
2019-04-11T03:43:16.443Z,7.66
2019-04-11T03:46:00.032Z,7.52
2019-04-11T03:48:30.677Z,7.46
2019-04-11T03:50:49.070Z,7.63
2019-04-11T03:53:27.240Z,7.65
2019-04-11T03:55:59.198Z,7.48
2019-04-11T03:58:33.226Z,7.48
2019-04-11T04:01:10.580Z,7.32
2019-04-11T04:03:42.668Z,7.78
2019-04-11T04:06:17.123Z,7.78
2019-04-11T04:08:51.434Z,7.66
2019-04-11T04:11:27.685Z,7.76
2019-04-11T04:14:03.693Z,7.49
2019-04-11T04:16:43.275Z,7.72
2019-04-11T04:19:15.740Z,7.39
2019-04-11T04:21:49.068Z,7.39
2019-04-11T04:24:22.965Z,7.03
2019-04-11T04:26:59.097Z,7.38
2019-04-11T04:29:34.752Z,7.24
2019-04-11T04:32:08.969Z,6.91
2019-04-11T04:34:44.257Z,7.57
2019-04-11T04:37:19.763Z,7.32
2019-04-11T04:40:13.210Z,7.55
2019-04-11T04:42:33.265Z,7.21
2019-04-11T04:45:09.550Z,7.21
2019-04-11T04:47:48.854Z,7.15
2019-04-11T04:50:19.941Z,7.17
2019-04-11T04:52:55.743Z,7.18
2019-04-11T04:55:30.314Z,7.41
2019-04-11T04:58:04.905Z,7.41
2019-04-11T05:00:39.730Z,7.18
2019-04-11T05:03:13.667Z,7.21
2019-04-11T05:05:48.464Z,7.05
2019-04-11T05:08:22.858Z,7.13
2019-04-11T05:10:57.874Z,7.10
2019-04-11T05:13:32.323Z,7.14
2019-04-11T05:16:16.383Z,7.03
2019-04-11T05:18:41.984Z,7.03
2019-04-11T05:21:17.005Z,7.27
2019-04-11T05:23:52.069Z,7.34
2019-04-11T05:26:25.974Z,7.11
2019-04-11T05:29:00.607Z,7.04
2019-04-11T05:31:34.489Z,7.04
2019-04-11T05:34:08.160Z,6.98
2019-04-11T05:36:42.870Z,7.22
2019-04-11T05:39:18.417Z,7.22
2019-04-11T05:41:52.071Z,7.20
2019-04-11T05:44:25.776Z,7.26
2019-04-11T05:47:02.581Z,7.26
2019-04-11T05:49:38.446Z,7.46
2019-04-11T05:52:10.384Z,7.43
2019-04-11T05:54:47.956Z,7.67
2019-04-11T05:57:23.747Z,7.59
2019-04-11T05:59:56.207Z,7.39
2019-04-11T06:02:30.325Z,7.46
2019-04-11T06:05:04.542Z,7.54
2019-04-11T06:07:42.457Z,7.54
2019-04-11T06:10:14.704Z,7.26
2019-04-11T06:12:48.582Z,7.41
2019-04-11T06:15:23.003Z,7.33
2019-04-11T06:17:56.798Z,7.79
2019-04-11T06:20:31.313Z,7.63
2019-04-11T06:23:05.065Z,7.47
2019-04-11T06:25:43.097Z,7.47
2019-04-11T06:28:14.190Z,7.76
2019-04-11T06:30:48.566Z,7.50
2019-04-11T06:33:22.684Z,7.81
2019-04-11T06:35:56.705Z,7.64
2019-04-11T06:38:30.555Z,7.89
2019-04-11T06:41:04.259Z,8.20
2019-04-11T06:43:38.383Z,7.84
2019-04-11T06:46:13.165Z,8.25
2019-04-11T06:48:47.664Z,8.25
2019-04-11T06:51:21.993Z,8.52
2019-04-11T06:53:56.680Z,8.35
2019-04-11T06:56:30.472Z,8.39
2019-04-11T06:59:04.181Z,8.44
2019-04-11T07:01:38.426Z,8.48
2019-04-11T07:04:13.512Z,8.48
2019-04-11T07:06:48.187Z,8.50
2019-04-11T07:09:22.277Z,8.33
2019-04-11T07:11:57.054Z,8.59
2019-04-11T07:14:31.228Z,8.59
2019-04-11T07:17:08.008Z,8.71
2019-04-11T07:19:41.346Z,8.71
2019-04-11T07:22:15.327Z,8.79
2019-04-11T07:24:49.535Z,8.86
2019-04-11T07:27:23.790Z,8.86
2019-04-11T07:29:58.509Z,9.11
2019-04-11T07:32:32.327Z,9.11
2019-04-11T07:35:06.376Z,9.20
2019-04-11T07:37:40.693Z,9.11
2019-04-11T07:40:15.606Z,9.44
2019-04-11T07:42:51.526Z,9.44
2019-04-11T07:45:25.367Z,9.32
2019-04-11T07:47:59.181Z,9.70
2019-04-11T07:50:33.348Z,9.69
2019-04-11T07:53:07.189Z,9.81
2019-04-11T07:55:40.880Z,9.81
2019-04-11T07:58:15.348Z,9.91
2019-04-11T08:00:51.892Z,10.11
2019-04-11T08:03:25.545Z,10.13
2019-04-11T08:05:59.314Z,10.28
2019-04-11T08:08:33.120Z,10.28
2019-04-11T08:11:06.847Z,10.16
2019-04-11T08:13:40.802Z,10.28
2019-04-11T08:16:14.773Z,10.28
2019-04-11T08:18:48.800Z,10.36
2019-04-11T08:21:22.597Z,10.24
2019-04-11T08:23:56.331Z,10.44
2019-04-11T08:26:30.438Z,10.72
2019-04-11T08:29:08.994Z,10.79
2019-04-11T08:31:40.270Z,10.58
2019-04-11T08:34:15.200Z,10.58
2019-04-11T08:36:49.040Z,10.76
2019-04-11T08:39:22.902Z,10.68
2019-04-11T08:41:56.905Z,10.83
2019-04-11T08:44:32.009Z,10.88
2019-04-11T08:47:06.003Z,11.17
2019-04-11T08:49:39.798Z,11.17
2019-04-11T08:52:13.957Z,11.22
2019-04-11T08:54:47.968Z,11.17
2019-04-11T08:57:21.859Z,11.17
2019-04-11T08:59:55.657Z,11.48
2019-04-11T09:02:29.416Z,11.58
2019-04-11T09:05:11.589Z,11.58
2019-04-11T09:07:38.801Z,11.72
2019-04-11T09:10:12.672Z,12.13
2019-04-11T09:12:47.257Z,11.88
2019-04-11T09:15:21.170Z,11.92
2019-04-11T09:18:03.412Z,11.92
2019-04-11T09:20:31.750Z,11.95
2019-04-11T09:23:05.892Z,11.83
2019-04-11T09:25:39.702Z,12.11
2019-04-11T09:28:13.515Z,12.12
2019-04-11T09:30:47.369Z,12.12
2019-04-11T09:33:21.237Z,12.43
2019-04-11T09:35:55.502Z,12.43
2019-04-11T09:38:30.527Z,12.03
2019-04-11T09:41:04.415Z,12.44
2019-04-11T09:43:38.335Z,12.43
2019-04-11T09:46:12.529Z,12.43
2019-04-11T09:48:46.430Z,12.40
2019-04-11T09:51:21.328Z,12.58
2019-04-11T09:53:55.156Z,12.58
2019-04-11T09:56:29.218Z,12.76
2019-04-11T09:59:05.199Z,12.71
2019-04-11T10:01:38.603Z,12.71
2019-04-11T10:04:12.636Z,12.80
2019-04-11T10:06:46.581Z,13.01
2019-04-11T10:09:20.396Z,12.94
2019-04-11T10:11:54.937Z,12.68
2019-04-11T10:14:29.409Z,12.68
2019-04-11T10:17:04.451Z,12.76
2019-04-11T10:19:38.409Z,12.76
2019-04-11T10:22:13.099Z,12.93
2019-04-11T10:24:46.986Z,13.22
2019-04-11T10:27:20.724Z,13.22
2019-04-11T10:29:54.672Z,13.13
2019-04-11T10:32:28.576Z,13.13
2019-04-11T10:35:02.316Z,13.51
2019-04-11T10:37:36.049Z,13.87
2019-04-11T10:40:10.179Z,13.97
2019-04-11T10:42:44.455Z,14.10
2019-04-11T10:45:18.450Z,14.10
2019-04-11T10:47:54.329Z,14.02
2019-04-11T10:50:28.508Z,13.61
2019-04-11T10:53:02.717Z,13.10
2019-04-11T10:55:37.798Z,13.16
2019-04-11T10:58:12.941Z,13.16
2019-04-11T11:00:47.375Z,13.18
2019-04-11T11:03:22.052Z,13.21
2019-04-11T11:05:56.005Z,13.27
2019-04-11T11:08:29.721Z,13.68
2019-04-11T11:11:03.931Z,13.68
2019-04-11T11:13:39.070Z,13.89
2019-04-11T11:16:13.934Z,13.89
2019-04-11T11:19:22.265Z,13.74
2019-04-11T11:21:29.406Z,13.74
2019-04-11T11:23:58.667Z,14.03
2019-04-11T11:26:33.769Z,13.85
2019-04-11T11:29:13.122Z,13.98
2019-04-11T11:31:43.118Z,13.90
2019-04-11T11:34:19.946Z,13.96
2019-04-11T11:36:54.990Z,14.32
2019-04-11T11:39:29.240Z,14.10
2019-04-11T11:42:04.033Z,14.27
2019-04-11T11:44:39.111Z,14.29
2019-04-11T11:47:12.958Z,14.59
2019-04-11T11:49:56.485Z,14.59
2019-04-11T11:52:22.811Z,14.17
2019-04-11T11:54:56.785Z,14.17
2019-04-11T11:57:30.855Z,14.54
2019-04-11T12:00:07.103Z,14.65
2019-04-11T12:02:40.866Z,14.34
2019-04-11T12:05:16.371Z,14.34
2019-04-11T12:07:49.990Z,14.03
2019-04-11T12:10:24.020Z,14.19
2019-04-11T12:12:58.091Z,14.19
2019-04-11T12:15:32.963Z,14.21
2019-04-11T12:18:08.232Z,14.21
2019-04-11T12:20:44.772Z,14.11
2019-04-11T12:23:17.702Z,14.52
2019-04-11T12:25:51.667Z,14.64
2019-04-11T12:28:25.721Z,14.77
2019-04-11T12:31:01.414Z,14.77
2019-04-11T12:33:35.337Z,14.65
2019-04-11T12:36:09.837Z,14.65
2019-04-11T12:38:43.769Z,14.67
2019-04-11T12:41:20.084Z,14.95
2019-04-11T12:43:53.468Z,15.21
2019-04-11T12:46:29.976Z,14.72
2019-04-11T12:49:02.673Z,14.72
2019-04-11T12:51:36.488Z,14.77
2019-04-11T12:54:10.777Z,14.77
2019-04-11T12:56:44.494Z,14.53
2019-04-11T12:59:18.902Z,14.53
2019-04-11T13:01:58.853Z,14.53
2019-04-11T13:04:32.605Z,14.57
2019-04-11T13:07:06.294Z,14.71
2019-04-11T13:09:40.023Z,14.80
2019-04-11T13:12:13.725Z,14.80
2019-04-11T13:14:47.503Z,15.40
2019-04-11T13:17:21.190Z,15.53
2019-04-11T13:20:04.281Z,15.85
2019-04-11T13:22:30.333Z,15.85
2019-04-11T13:25:05.823Z,16.74
2019-04-11T13:27:39.519Z,16.87
2019-04-11T13:30:13.249Z,16.82
2019-04-11T13:32:46.947Z,16.94
2019-04-11T13:35:20.705Z,17.59
2019-04-11T13:37:54.526Z,18.12
2019-04-11T13:40:28.262Z,18.40
2019-04-11T13:43:01.996Z,18.12
2019-04-11T13:45:35.757Z,17.38
2019-04-11T13:48:09.455Z,17.38
2019-04-11T13:50:43.183Z,17.20
2019-04-11T13:53:16.930Z,19.30
2019-04-11T13:55:50.650Z,19.30
2019-04-11T13:58:24.379Z,23.53
2019-04-11T14:00:58.092Z,25.74
2019-04-11T14:03:32.020Z,25.74
2019-04-11T14:06:12.274Z,26.24
2019-04-11T14:08:46.024Z,23.45
2019-04-11T14:11:19.728Z,23.45
2019-04-11T14:13:54.344Z,22.25
2019-04-11T14:16:29.912Z,20.18
2019-04-11T14:19:03.560Z,19.38
2019-04-11T14:21:37.296Z,18.24
2019-04-11T14:24:11.694Z,17.49
2019-04-11T14:26:45.824Z,16.93
2019-04-11T14:29:19.616Z,16.79
2019-04-11T14:31:53.812Z,16.88
2019-04-11T14:34:29.365Z,16.70
2019-04-11T14:37:03.240Z,16.70
2019-04-11T14:39:36.952Z,20.35
2019-04-11T14:42:12.059Z,19.81
2019-04-11T14:44:46.244Z,19.81
2019-04-11T14:47:19.958Z,18.88
2019-04-11T14:49:53.659Z,18.88
2019-04-11T14:52:27.361Z,17.64
2019-04-11T14:55:01.081Z,17.64
2019-04-11T14:57:34.807Z,17.44
2019-04-11T15:00:14.247Z,17.21
2019-04-11T15:02:47.979Z,16.36
2019-04-11T15:05:21.696Z,16.36
2019-04-11T15:07:55.399Z,16.34
2019-04-11T15:10:29.120Z,16.13
2019-04-11T15:13:02.830Z,16.28
2019-04-11T15:15:36.566Z,16.35
2019-04-11T15:18:10.281Z,15.86
2019-04-11T15:20:54.201Z,15.86
2019-04-11T15:23:19.396Z,15.66
2019-04-11T15:25:55.196Z,15.66
2019-04-11T15:28:28.517Z,16.33
2019-04-11T15:31:02.256Z,15.51
2019-04-11T15:33:36.051Z,15.77
2019-04-11T15:36:09.833Z,15.67
2019-04-11T15:38:43.589Z,15.23
2019-04-11T15:41:17.369Z,15.23
2019-04-11T15:43:51.096Z,15.37
2019-04-11T15:46:24.854Z,14.87
2019-04-11T15:48:58.543Z,14.58
2019-04-11T15:51:33.862Z,14.64
2019-04-11T15:54:07.673Z,14.64
2019-04-11T15:56:42.046Z,15.04
2019-04-11T15:59:15.951Z,14.36
2019-04-11T16:01:49.646Z,15.29
2019-04-11T16:04:23.388Z,15.29
2019-04-11T16:06:57.752Z,20.58
2019-04-11T16:09:31.470Z,19.57
2019-04-11T16:12:05.179Z,19.57
2019-04-11T16:14:38.888Z,18.06
2019-04-11T16:17:13.772Z,18.06
2019-04-11T16:19:48.599Z,18.60
2019-04-11T16:22:24.699Z,16.79
2019-04-11T16:24:58.312Z,15.87
2019-04-11T16:27:34.297Z,15.90
2019-04-11T16:30:10.168Z,15.90
2019-04-11T16:32:44.259Z,15.45
2019-04-11T16:35:18.041Z,15.45
2019-04-11T16:37:51.800Z,15.12
2019-04-11T16:40:25.543Z,14.90
2019-04-11T16:42:59.343Z,14.32
2019-04-11T16:45:33.074Z,14.32
2019-04-11T16:48:06.802Z,14.40
2019-04-11T16:50:40.618Z,14.40
2019-04-11T16:53:14.328Z,13.76
2019-04-11T16:55:48.152Z,13.76
2019-04-11T16:58:21.933Z,13.95
2019-04-11T17:00:55.663Z,13.83
2019-04-11T17:03:29.427Z,13.82
2019-04-11T17:06:03.191Z,13.19
2019-04-11T17:08:36.968Z,13.19
2019-04-11T17:11:10.687Z,13.07
2019-04-11T17:13:44.499Z,13.07
2019-04-11T17:16:18.248Z,13.17
2019-04-11T17:18:52.059Z,13.17
2019-04-11T17:21:25.774Z,12.62
2019-04-11T17:23:59.513Z,13.04
2019-04-11T17:26:33.308Z,13.04
2019-04-11T17:29:07.031Z,12.97
2019-04-11T17:31:40.769Z,12.97
2019-04-11T17:34:14.537Z,13.01
2019-04-11T17:36:48.409Z,12.62
2019-04-11T17:39:22.153Z,12.61
2019-04-11T17:41:55.854Z,12.77
2019-04-11T17:44:29.585Z,13.07
2019-04-11T17:47:03.322Z,12.88
2019-04-11T17:49:37.147Z,12.93
2019-04-11T17:52:10.851Z,12.62
2019-04-11T17:54:44.620Z,12.70
2019-04-11T17:57:18.469Z,12.54
2019-04-11T17:59:59.125Z,12.57
2019-04-11T18:02:33.575Z,12.30
2019-04-11T18:05:07.308Z,11.93
2019-04-11T18:07:41.512Z,12.25
2019-04-11T18:10:15.403Z,12.25
2019-04-11T18:12:49.133Z,12.04
2019-04-11T18:15:22.942Z,12.32
2019-04-11T18:17:56.750Z,12.32
2019-04-11T18:20:30.690Z,12.38
2019-04-11T18:23:04.405Z,11.91
2019-04-11T18:25:38.256Z,12.08
2019-04-11T18:28:12.450Z,12.08
2019-04-11T18:30:46.272Z,11.98
2019-04-11T18:33:20.055Z,11.92
2019-04-11T18:35:53.826Z,12.10
2019-04-11T18:38:27.605Z,12.10
2019-04-11T18:41:03.017Z,12.28
2019-04-11T18:43:36.767Z,11.96
2019-04-11T18:46:10.524Z,11.83
2019-04-11T18:48:44.256Z,11.89
2019-04-11T18:51:18.296Z,11.89
2019-04-11T18:53:52.054Z,12.06
2019-04-11T18:56:25.833Z,12.06
2019-04-11T18:59:03.466Z,12.13
2019-04-11T19:01:39.240Z,11.87
2019-04-11T19:04:12.129Z,11.83
2019-04-11T19:06:45.879Z,11.93
2019-04-11T19:09:19.641Z,11.57
2019-04-11T19:11:53.423Z,11.41
2019-04-11T19:14:27.178Z,11.41
2019-04-11T19:17:00.888Z,11.71
2019-04-11T19:19:34.626Z,11.83
2019-04-11T19:22:08.353Z,11.47
2019-04-11T19:24:42.470Z,11.47
2019-04-11T19:27:20.268Z,11.56
2019-04-11T19:29:55.597Z,11.38
2019-04-11T19:32:27.189Z,11.38
2019-04-11T19:35:00.932Z,11.18
2019-04-11T19:37:34.656Z,11.16
2019-04-11T19:40:10.049Z,11.16
2019-04-11T19:42:44.057Z,11.33
2019-04-11T19:45:19.618Z,11.33
2019-04-11T19:47:53.363Z,11.51
2019-04-11T19:50:29.060Z,11.46
2019-04-11T19:53:03.416Z,11.27
2019-04-11T19:55:37.327Z,11.42
2019-04-11T19:58:11.048Z,11.01
2019-04-11T20:00:47.282Z,11.21
2019-04-11T20:03:21.846Z,11.45
2019-04-11T20:05:55.791Z,11.45
2019-04-11T20:08:29.522Z,10.92
2019-04-11T20:11:03.276Z,10.92
2019-04-11T20:13:37.013Z,11.04
2019-04-11T20:16:12.563Z,10.98
2019-04-11T20:18:51.238Z,10.98
2019-04-11T20:21:21.643Z,10.96
2019-04-11T20:23:55.499Z,11.05
2019-04-11T20:26:29.294Z,11.33
2019-04-11T20:29:03.015Z,10.84
2019-04-11T20:31:36.732Z,10.84
2019-04-11T20:34:10.457Z,10.67
2019-04-11T20:36:44.162Z,10.74
2019-04-11T20:39:17.982Z,10.63
2019-04-11T20:41:53.531Z,10.71
2019-04-11T20:44:28.083Z,10.71
2019-04-11T20:47:02.065Z,10.61
2019-04-11T20:49:35.889Z,10.80
2019-04-11T20:52:09.730Z,10.13
2019-04-11T20:54:45.275Z,10.36
2019-04-11T20:57:25.520Z,10.86
2019-04-11T20:59:54.624Z,10.62
2019-04-11T21:02:29.117Z,10.81
2019-04-11T21:05:03.194Z,10.66
2019-04-11T21:07:39.057Z,10.57
2019-04-11T21:10:12.289Z,10.29
2019-04-11T21:12:45.979Z,10.43
2019-04-11T21:15:20.239Z,10.43
2019-04-11T21:17:56.100Z,10.44
2019-04-11T21:20:30.570Z,10.70
2019-04-11T21:23:04.280Z,10.51
2019-04-11T21:25:37.975Z,10.61
2019-04-11T21:28:12.145Z,10.61
2019-04-11T21:30:45.863Z,10.34
2019-04-11T21:33:19.561Z,10.50
2019-04-11T21:35:53.284Z,10.35
2019-04-11T21:38:28.180Z,10.51
2019-04-11T21:41:05.959Z,10.51
2019-04-11T21:43:37.829Z,10.47
2019-04-11T21:46:12.132Z,10.47
2019-04-11T21:48:45.849Z,10.41
2019-04-11T21:51:19.577Z,10.46
2019-04-11T21:53:53.274Z,10.46
2019-04-11T21:56:26.979Z,10.50
2019-04-11T21:59:00.676Z,10.61
2019-04-11T22:01:34.366Z,10.62
2019-04-11T22:04:08.339Z,10.52
2019-04-11T22:06:42.052Z,10.52
2019-04-11T22:09:15.752Z,10.61
2019-04-11T22:11:49.481Z,10.61
2019-04-11T22:14:23.222Z,10.48
2019-04-11T22:16:56.938Z,10.71
2019-04-11T22:19:30.952Z,10.52
2019-04-11T22:22:04.663Z,10.52
2019-04-11T22:24:38.365Z,10.35
2019-04-11T22:27:12.427Z,10.35
2019-04-11T22:29:46.143Z,10.49
2019-04-11T22:32:19.837Z,10.26
2019-04-11T22:34:53.541Z,10.14
2019-04-11T22:37:27.806Z,10.14
2019-04-11T22:40:04.505Z,10.48
2019-04-11T22:42:38.220Z,10.48
2019-04-11T22:45:12.461Z,10.12
2019-04-11T22:47:46.164Z,10.44
2019-04-11T22:50:19.870Z,10.18
2019-04-11T22:52:53.575Z,10.18
2019-04-11T22:55:27.298Z,10.27
2019-04-11T22:58:00.986Z,10.02
2019-04-11T23:00:34.686Z,9.83
2019-04-11T23:03:08.414Z,9.83
2019-04-11T23:05:42.102Z,10.17
2019-04-11T23:08:18.736Z,10.05
2019-04-11T23:10:51.197Z,9.85
2019-04-11T23:13:25.065Z,9.89
2019-04-11T23:15:58.751Z,9.80
2019-04-11T23:18:32.532Z,9.80
2019-04-11T23:21:06.214Z,9.73
2019-04-11T23:23:39.885Z,10.00
2019-04-11T23:26:13.587Z,9.71
2019-04-11T23:28:47.285Z,10.02
2019-04-11T23:31:21.153Z,10.13
2019-04-11T23:33:54.868Z,9.91
2019-04-11T23:36:28.569Z,9.67
2019-04-11T23:39:02.277Z,9.56
2019-04-11T23:41:35.982Z,9.81
2019-04-11T23:44:09.683Z,9.81
2019-04-11T23:46:43.398Z,9.74
2019-04-11T23:49:17.093Z,9.74
2019-04-11T23:51:50.803Z,9.82
2019-04-11T23:54:24.503Z,9.67
2019-04-11T23:57:00.570Z,9.67
2019-04-11T23:59:33.622Z,9.79
